sensor_id;sensor_type;location;lat;lon;timestamp;temperature;humidity
25410;DHT22;13339;50.840;4.346;2024-02-16T00:00:55;16.40;99.90
25410;DHT22;13339;50.840;4.346;2024-02-16T00:03:22;16.50;99.90
25410;DHT22;13339;50.840;4.346;2024-02-16T00:05:47;16.40;99.90
25410;DHT22;13339;50.840;4.346;2024-02-16T00:08:15;16.40;99.90
25410;DHT22;13339;50.840;4.346;2024-02-16T00:10:42;16.40;99.90
25410;DHT22;13339;50.840;4.346;2024-02-16T00:13:08;16.40;99.90
25410;DHT22;13339;50.840;4.346;2024-02-16T00:15:33;16.40;99.90
25410;DHT22;13339;50.840;4.346;2024-02-16T00:18:00;16.40;99.90
25410;DHT22;13339;50.840;4.346;2024-02-16T00:20:25;16.50;99.90
25410;DHT22;13339;50.840;4.346;2024-02-16T00:22:51;16.50;99.90
25410;DHT22;13339;50.840;4.346;2024-02-16T00:25:16;16.60;99.90
25410;DHT22;13339;50.840;4.346;2024-02-16T00:27:43;16.60;99.90
25410;DHT22;13339;50.840;4.346;2024-02-16T00:30:09;16.60;99.90
25410;DHT22;13339;50.840;4.346;2024-02-16T00:32:38;16.60;99.90
25410;DHT22;13339;50.840;4.346;2024-02-16T00:35:04;16.60;99.90
25410;DHT22;13339;50.840;4.346;2024-02-16T00:37:29;16.60;99.90
25410;DHT22;13339;50.840;4.346;2024-02-16T00:39:55;16.60;99.90
25410;DHT22;13339;50.840;4.346;2024-02-16T00:42:21;16.40;99.90
25410;DHT22;13339;50.840;4.346;2024-02-16T00:44:51;16.40;99.90
25410;DHT22;13339;50.840;4.346;2024-02-16T00:47:17;16.40;99.90
25410;DHT22;13339;50.840;4.346;2024-02-16T00:49:43;16.50;99.90
25410;DHT22;13339;50.840;4.346;2024-02-16T00:52:09;16.50;99.90
25410;DHT22;13339;50.840;4.346;2024-02-16T00:54:36;16.50;99.90
25410;DHT22;13339;50.840;4.346;2024-02-16T00:57:01;16.40;99.90
25410;DHT22;13339;50.840;4.346;2024-02-16T00:59:28;16.40;99.90
25410;DHT22;13339;50.840;4.346;2024-02-16T01:01:54;16.50;99.90
25410;DHT22;13339;50.840;4.346;2024-02-16T01:04:20;16.40;99.90
25410;DHT22;13339;50.840;4.346;2024-02-16T01:06:45;16.50;99.90
25410;DHT22;13339;50.840;4.346;2024-02-16T01:09:11;16.60;99.90
25410;DHT22;13339;50.840;4.346;2024-02-16T01:11:41;16.50;99.90
25410;DHT22;13339;50.840;4.346;2024-02-16T01:14:06;16.50;99.90
25410;DHT22;13339;50.840;4.346;2024-02-16T01:16:32;16.50;99.90
25410;DHT22;13339;50.840;4.346;2024-02-16T01:18:58;16.50;99.90
25410;DHT22;13339;50.840;4.346;2024-02-16T01:21:23;16.50;99.90
25410;DHT22;13339;50.840;4.346;2024-02-16T01:23:49;16.60;99.90
25410;DHT22;13339;50.840;4.346;2024-02-16T01:26:15;16.70;99.90
25410;DHT22;13339;50.840;4.346;2024-02-16T01:28:40;16.60;99.90
25410;DHT22;13339;50.840;4.346;2024-02-16T01:31:06;16.60;99.90
25410;DHT22;13339;50.840;4.346;2024-02-16T01:33:32;16.50;99.90
25410;DHT22;13339;50.840;4.346;2024-02-16T01:36:00;16.60;99.90
25410;DHT22;13339;50.840;4.346;2024-02-16T01:38:25;16.60;99.90
25410;DHT22;13339;50.840;4.346;2024-02-16T01:40:51;16.60;99.90
25410;DHT22;13339;50.840;4.346;2024-02-16T01:43:20;16.50;99.90
25410;DHT22;13339;50.840;4.346;2024-02-16T01:45:46;16.50;99.90
25410;DHT22;13339;50.840;4.346;2024-02-16T01:48:13;16.50;99.90
25410;DHT22;13339;50.840;4.346;2024-02-16T01:50:39;16.50;99.90
25410;DHT22;13339;50.840;4.346;2024-02-16T01:53:05;16.50;99.90
25410;DHT22;13339;50.840;4.346;2024-02-16T01:55:30;16.50;99.90
25410;DHT22;13339;50.840;4.346;2024-02-16T01:57:58;16.60;99.90
25410;DHT22;13339;50.840;4.346;2024-02-16T02:00:25;16.50;99.90
25410;DHT22;13339;50.840;4.346;2024-02-16T02:02:51;16.60;99.90
25410;DHT22;13339;50.840;4.346;2024-02-16T02:05:17;16.70;99.90
25410;DHT22;13339;50.840;4.346;2024-02-16T02:07:43;16.60;99.90
25410;DHT22;13339;50.840;4.346;2024-02-16T02:10:09;16.60;99.90
25410;DHT22;13339;50.840;4.346;2024-02-16T02:12:38;16.60;99.90
25410;DHT22;13339;50.840;4.346;2024-02-16T02:15:05;16.60;99.90
25410;DHT22;13339;50.840;4.346;2024-02-16T02:17:30;16.50;99.90
25410;DHT22;13339;50.840;4.346;2024-02-16T02:19:56;16.50;99.90
25410;DHT22;13339;50.840;4.346;2024-02-16T02:22:22;16.50;99.90
25410;DHT22;13339;50.840;4.346;2024-02-16T02:24:48;16.50;99.90
25410;DHT22;13339;50.840;4.346;2024-02-16T02:27:15;16.50;99.90
25410;DHT22;13339;50.840;4.346;2024-02-16T02:29:41;16.50;99.90
25410;DHT22;13339;50.840;4.346;2024-02-16T02:32:08;16.60;99.90
25410;DHT22;13339;50.840;4.346;2024-02-16T02:34:34;16.50;99.90
25410;DHT22;13339;50.840;4.346;2024-02-16T02:37:02;16.60;99.90
25410;DHT22;13339;50.840;4.346;2024-02-16T02:39:29;16.50;99.90
25410;DHT22;13339;50.840;4.346;2024-02-16T02:41:55;16.50;99.90
25410;DHT22;13339;50.840;4.346;2024-02-16T02:44:21;16.50;99.90
25410;DHT22;13339;50.840;4.346;2024-02-16T02:46:46;16.50;99.90
25410;DHT22;13339;50.840;4.346;2024-02-16T02:49:12;16.60;99.90
25410;DHT22;13339;50.840;4.346;2024-02-16T02:51:38;16.60;99.90
25410;DHT22;13339;50.840;4.346;2024-02-16T02:54:03;16.50;99.90
25410;DHT22;13339;50.840;4.346;2024-02-16T02:56:29;16.60;99.90
25410;DHT22;13339;50.840;4.346;2024-02-16T02:58:55;16.60;99.90
25410;DHT22;13339;50.840;4.346;2024-02-16T03:01:20;16.60;99.90
25410;DHT22;13339;50.840;4.346;2024-02-16T03:03:47;16.60;99.90
25410;DHT22;13339;50.840;4.346;2024-02-16T03:06:18;16.50;99.90
25410;DHT22;13339;50.840;4.346;2024-02-16T03:08:43;16.50;99.90
25410;DHT22;13339;50.840;4.346;2024-02-16T03:11:09;16.50;99.90
25410;DHT22;13339;50.840;4.346;2024-02-16T03:13:36;16.60;99.90
25410;DHT22;13339;50.840;4.346;2024-02-16T03:16:01;16.50;99.90
25410;DHT22;13339;50.840;4.346;2024-02-16T03:18:31;16.50;99.90
25410;DHT22;13339;50.840;4.346;2024-02-16T03:20:57;16.40;99.90
25410;DHT22;13339;50.840;4.346;2024-02-16T03:23:23;16.40;99.90
25410;DHT22;13339;50.840;4.346;2024-02-16T03:25:49;16.50;99.90
25410;DHT22;13339;50.840;4.346;2024-02-16T03:28:15;16.50;99.90
25410;DHT22;13339;50.840;4.346;2024-02-16T03:30:41;16.60;99.90
25410;DHT22;13339;50.840;4.346;2024-02-16T03:33:08;16.60;99.90
25410;DHT22;13339;50.840;4.346;2024-02-16T03:35:34;16.50;99.90
25410;DHT22;13339;50.840;4.346;2024-02-16T03:37:59;16.50;99.90
25410;DHT22;13339;50.840;4.346;2024-02-16T03:40:25;16.50;99.90
25410;DHT22;13339;50.840;4.346;2024-02-16T03:42:51;16.40;99.90
25410;DHT22;13339;50.840;4.346;2024-02-16T03:45:17;16.40;99.90
25410;DHT22;13339;50.840;4.346;2024-02-16T03:47:43;16.40;99.90
25410;DHT22;13339;50.840;4.346;2024-02-16T03:50:10;16.30;99.90
25410;DHT22;13339;50.840;4.346;2024-02-16T03:52:36;16.30;99.90
25410;DHT22;13339;50.840;4.346;2024-02-16T03:55:02;16.30;99.90
25410;DHT22;13339;50.840;4.346;2024-02-16T03:57:28;16.40;99.90
25410;DHT22;13339;50.840;4.346;2024-02-16T03:59:53;16.40;99.90
25410;DHT22;13339;50.840;4.346;2024-02-16T04:02:19;16.50;99.90
25410;DHT22;13339;50.840;4.346;2024-02-16T04:04:45;16.50;99.90
25410;DHT22;13339;50.840;4.346;2024-02-16T04:07:11;16.60;99.90
25410;DHT22;13339;50.840;4.346;2024-02-16T04:09:37;16.60;99.90
25410;DHT22;13339;50.840;4.346;2024-02-16T04:12:03;16.60;99.90
25410;DHT22;13339;50.840;4.346;2024-02-16T04:14:32;16.60;99.90
25410;DHT22;13339;50.840;4.346;2024-02-16T04:16:59;16.60;99.90
25410;DHT22;13339;50.840;4.346;2024-02-16T04:19:26;16.60;99.90
25410;DHT22;13339;50.840;4.346;2024-02-16T04:21:52;16.40;99.90
25410;DHT22;13339;50.840;4.346;2024-02-16T04:24:17;16.40;99.90
25410;DHT22;13339;50.840;4.346;2024-02-16T04:26:43;16.50;99.90
25410;DHT22;13339;50.840;4.346;2024-02-16T04:29:09;16.60;99.90
25410;DHT22;13339;50.840;4.346;2024-02-16T04:31:35;16.50;99.90
25410;DHT22;13339;50.840;4.346;2024-02-16T04:34:01;16.50;99.90
25410;DHT22;13339;50.840;4.346;2024-02-16T04:36:27;16.60;99.90
25410;DHT22;13339;50.840;4.346;2024-02-16T04:38:52;16.60;99.90
25410;DHT22;13339;50.840;4.346;2024-02-16T04:41:20;16.60;99.90
25410;DHT22;13339;50.840;4.346;2024-02-16T04:43:45;16.70;99.90
25410;DHT22;13339;50.840;4.346;2024-02-16T04:46:15;16.70;99.90
25410;DHT22;13339;50.840;4.346;2024-02-16T04:48:41;16.60;99.90
25410;DHT22;13339;50.840;4.346;2024-02-16T04:51:06;16.50;99.90
25410;DHT22;13339;50.840;4.346;2024-02-16T04:53:32;16.50;99.90
25410;DHT22;13339;50.840;4.346;2024-02-16T04:55:57;16.60;99.90
25410;DHT22;13339;50.840;4.346;2024-02-16T04:58:23;16.70;99.90
25410;DHT22;13339;50.840;4.346;2024-02-16T05:00:49;16.70;99.90
25410;DHT22;13339;50.840;4.346;2024-02-16T05:03:15;16.70;99.90
25410;DHT22;13339;50.840;4.346;2024-02-16T05:05:41;16.70;99.90
25410;DHT22;13339;50.840;4.346;2024-02-16T05:08:06;16.70;99.90
25410;DHT22;13339;50.840;4.346;2024-02-16T05:10:32;16.80;99.90
25410;DHT22;13339;50.840;4.346;2024-02-16T05:12:58;16.90;99.90
25410;DHT22;13339;50.840;4.346;2024-02-16T05:15:24;16.90;99.90
25410;DHT22;13339;50.840;4.346;2024-02-16T05:17:49;16.90;99.90
25410;DHT22;13339;50.840;4.346;2024-02-16T05:20:15;16.80;99.90
25410;DHT22;13339;50.840;4.346;2024-02-16T05:22:42;16.90;99.90
25410;DHT22;13339;50.840;4.346;2024-02-16T05:25:09;16.90;99.90
25410;DHT22;13339;50.840;4.346;2024-02-16T05:27:36;16.90;99.90
25410;DHT22;13339;50.840;4.346;2024-02-16T05:30:02;17.00;99.90
25410;DHT22;13339;50.840;4.346;2024-02-16T05:32:29;17.00;99.90
25410;DHT22;13339;50.840;4.346;2024-02-16T05:34:55;16.90;99.90
25410;DHT22;13339;50.840;4.346;2024-02-16T05:37:20;16.90;99.90
25410;DHT22;13339;50.840;4.346;2024-02-16T05:39:47;16.90;99.90
25410;DHT22;13339;50.840;4.346;2024-02-16T05:42:22;16.80;99.90
25410;DHT22;13339;50.840;4.346;2024-02-16T05:44:48;16.80;99.90
25410;DHT22;13339;50.840;4.346;2024-02-16T05:47:15;16.80;99.90
25410;DHT22;13339;50.840;4.346;2024-02-16T05:49:41;16.80;99.90
25410;DHT22;13339;50.840;4.346;2024-02-16T05:52:07;16.80;99.90
25410;DHT22;13339;50.840;4.346;2024-02-16T05:54:46;16.60;99.90
25410;DHT22;13339;50.840;4.346;2024-02-16T05:57:13;16.50;99.90
25410;DHT22;13339;50.840;4.346;2024-02-16T05:59:39;16.60;99.90
25410;DHT22;13339;50.840;4.346;2024-02-16T06:02:05;16.60;99.90
25410;DHT22;13339;50.840;4.346;2024-02-16T06:04:36;16.60;99.90
25410;DHT22;13339;50.840;4.346;2024-02-16T06:07:01;16.60;99.90
25410;DHT22;13339;50.840;4.346;2024-02-16T06:09:27;16.50;99.90
25410;DHT22;13339;50.840;4.346;2024-02-16T06:12:00;16.60;99.90
25410;DHT22;13339;50.840;4.346;2024-02-16T06:14:29;16.70;99.90
25410;DHT22;13339;50.840;4.346;2024-02-16T06:16:54;16.70;99.90
25410;DHT22;13339;50.840;4.346;2024-02-16T06:19:20;16.70;99.90
25410;DHT22;13339;50.840;4.346;2024-02-16T06:21:46;16.70;99.90
25410;DHT22;13339;50.840;4.346;2024-02-16T06:24:11;16.60;99.90
25410;DHT22;13339;50.840;4.346;2024-02-16T06:26:37;16.60;99.90
25410;DHT22;13339;50.840;4.346;2024-02-16T06:29:02;16.50;99.90
25410;DHT22;13339;50.840;4.346;2024-02-16T06:31:28;16.50;99.90
25410;DHT22;13339;50.840;4.346;2024-02-16T06:33:54;16.50;99.90
25410;DHT22;13339;50.840;4.346;2024-02-16T06:36:19;16.40;99.90
25410;DHT22;13339;50.840;4.346;2024-02-16T06:38:45;16.50;99.90
25410;DHT22;13339;50.840;4.346;2024-02-16T06:41:12;16.40;99.90
25410;DHT22;13339;50.840;4.346;2024-02-16T06:43:38;16.50;99.90
25410;DHT22;13339;50.840;4.346;2024-02-16T06:46:03;16.50;99.90
25410;DHT22;13339;50.840;4.346;2024-02-16T06:48:30;16.50;99.90
25410;DHT22;13339;50.840;4.346;2024-02-16T06:50:56;16.20;99.90
25410;DHT22;13339;50.840;4.346;2024-02-16T06:53:21;16.30;99.90
25410;DHT22;13339;50.840;4.346;2024-02-16T06:55:47;16.30;99.90
25410;DHT22;13339;50.840;4.346;2024-02-16T06:58:13;16.30;99.90
25410;DHT22;13339;50.840;4.346;2024-02-16T07:00:38;16.30;99.90
25410;DHT22;13339;50.840;4.346;2024-02-16T07:03:07;16.30;99.90
25410;DHT22;13339;50.840;4.346;2024-02-16T07:05:33;16.20;99.90
25410;DHT22;13339;50.840;4.346;2024-02-16T07:07:58;16.30;99.90
25410;DHT22;13339;50.840;4.346;2024-02-16T07:10:24;16.40;99.90
25410;DHT22;13339;50.840;4.346;2024-02-16T07:12:50;16.50;99.90
25410;DHT22;13339;50.840;4.346;2024-02-16T07:15:15;16.40;99.90
25410;DHT22;13339;50.840;4.346;2024-02-16T07:17:41;16.40;99.90
25410;DHT22;13339;50.840;4.346;2024-02-16T07:20:07;16.40;99.90
25410;DHT22;13339;50.840;4.346;2024-02-16T07:22:33;16.40;99.90
25410;DHT22;13339;50.840;4.346;2024-02-16T07:24:59;16.40;99.90
25410;DHT22;13339;50.840;4.346;2024-02-16T07:27:26;16.40;99.90
25410;DHT22;13339;50.840;4.346;2024-02-16T07:29:51;16.50;99.90
25410;DHT22;13339;50.840;4.346;2024-02-16T07:32:17;16.30;99.90
25410;DHT22;13339;50.840;4.346;2024-02-16T07:34:47;16.30;99.90
25410;DHT22;13339;50.840;4.346;2024-02-16T07:37:13;16.40;99.90
25410;DHT22;13339;50.840;4.346;2024-02-16T07:39:39;16.30;99.90
25410;DHT22;13339;50.840;4.346;2024-02-16T07:42:06;16.30;99.90
25410;DHT22;13339;50.840;4.346;2024-02-16T07:44:35;16.30;99.90
25410;DHT22;13339;50.840;4.346;2024-02-16T07:47:01;16.30;99.90
25410;DHT22;13339;50.840;4.346;2024-02-16T07:49:26;16.40;99.90
25410;DHT22;13339;50.840;4.346;2024-02-16T07:51:52;16.50;99.90
25410;DHT22;13339;50.840;4.346;2024-02-16T07:54:17;16.50;99.90
25410;DHT22;13339;50.840;4.346;2024-02-16T07:56:43;16.50;99.90
25410;DHT22;13339;50.840;4.346;2024-02-16T07:59:08;16.50;99.90
25410;DHT22;13339;50.840;4.346;2024-02-16T08:01:34;16.50;99.90
25410;DHT22;13339;50.840;4.346;2024-02-16T08:04:00;16.40;99.90
25410;DHT22;13339;50.840;4.346;2024-02-16T08:06:26;16.40;99.90
25410;DHT22;13339;50.840;4.346;2024-02-16T08:08:52;16.40;99.90
25410;DHT22;13339;50.840;4.346;2024-02-16T08:11:18;16.40;99.90
25410;DHT22;13339;50.840;4.346;2024-02-16T08:13:43;16.50;99.90
25410;DHT22;13339;50.840;4.346;2024-02-16T08:16:10;16.50;99.90
25410;DHT22;13339;50.840;4.346;2024-02-16T08:18:35;16.50;99.90
25410;DHT22;13339;50.840;4.346;2024-02-16T08:21:01;16.60;99.90
25410;DHT22;13339;50.840;4.346;2024-02-16T08:23:26;16.70;99.90
25410;DHT22;13339;50.840;4.346;2024-02-16T08:25:52;16.60;99.90
25410;DHT22;13339;50.840;4.346;2024-02-16T08:28:18;16.50;99.90
25410;DHT22;13339;50.840;4.346;2024-02-16T08:30:44;16.60;99.90
25410;DHT22;13339;50.840;4.346;2024-02-16T08:33:12;16.60;99.90
25410;DHT22;13339;50.840;4.346;2024-02-16T08:35:38;16.60;99.90
25410;DHT22;13339;50.840;4.346;2024-02-16T08:38:04;16.50;99.90
25410;DHT22;13339;50.840;4.346;2024-02-16T08:40:31;16.40;99.90
25410;DHT22;13339;50.840;4.346;2024-02-16T08:42:57;16.40;99.90
25410;DHT22;13339;50.840;4.346;2024-02-16T08:45:24;16.40;99.90
25410;DHT22;13339;50.840;4.346;2024-02-16T08:47:49;16.40;99.90
25410;DHT22;13339;50.840;4.346;2024-02-16T08:50:15;16.30;99.90
25410;DHT22;13339;50.840;4.346;2024-02-16T08:52:40;16.30;99.90
25410;DHT22;13339;50.840;4.346;2024-02-16T08:55:07;16.40;99.90
25410;DHT22;13339;50.840;4.346;2024-02-16T08:57:33;16.30;99.90
25410;DHT22;13339;50.840;4.346;2024-02-16T08:59:59;16.40;99.90
25410;DHT22;13339;50.840;4.346;2024-02-16T09:02:24;16.40;99.90
25410;DHT22;13339;50.840;4.346;2024-02-16T09:04:50;16.40;99.90
25410;DHT22;13339;50.840;4.346;2024-02-16T09:07:15;16.50;99.90
25410;DHT22;13339;50.840;4.346;2024-02-16T09:09:41;16.40;99.90
25410;DHT22;13339;50.840;4.346;2024-02-16T09:12:07;16.50;99.90
25410;DHT22;13339;50.840;4.346;2024-02-16T09:14:32;16.60;99.90
25410;DHT22;13339;50.840;4.346;2024-02-16T09:16:58;16.60;99.90
25410;DHT22;13339;50.840;4.346;2024-02-16T09:19:23;16.70;99.90
25410;DHT22;13339;50.840;4.346;2024-02-16T09:21:49;16.60;99.90
25410;DHT22;13339;50.840;4.346;2024-02-16T09:24:17;16.70;99.90
25410;DHT22;13339;50.840;4.346;2024-02-16T09:26:46;16.70;99.90
25410;DHT22;13339;50.840;4.346;2024-02-16T09:29:13;16.70;99.90
25410;DHT22;13339;50.840;4.346;2024-02-16T09:31:42;16.70;99.90
25410;DHT22;13339;50.840;4.346;2024-02-16T09:34:08;16.70;99.90
25410;DHT22;13339;50.840;4.346;2024-02-16T09:36:33;16.80;99.90
25410;DHT22;13339;50.840;4.346;2024-02-16T09:39:01;16.80;99.90
25410;DHT22;13339;50.840;4.346;2024-02-16T09:41:27;16.80;99.90
25410;DHT22;13339;50.840;4.346;2024-02-16T09:43:54;16.70;99.90
25410;DHT22;13339;50.840;4.346;2024-02-16T09:46:21;16.70;99.90
25410;DHT22;13339;50.840;4.346;2024-02-16T09:48:48;16.70;99.90
25410;DHT22;13339;50.840;4.346;2024-02-16T09:51:18;16.80;99.90
25410;DHT22;13339;50.840;4.346;2024-02-16T09:53:50;16.80;99.90
25410;DHT22;13339;50.840;4.346;2024-02-16T09:56:20;16.70;99.90
25410;DHT22;13339;50.840;4.346;2024-02-16T09:58:46;16.70;99.90
25410;DHT22;13339;50.840;4.346;2024-02-16T10:01:18;16.60;99.90
25410;DHT22;13339;50.840;4.346;2024-02-16T10:03:45;16.60;99.90
25410;DHT22;13339;50.840;4.346;2024-02-16T10:06:11;16.60;99.90
25410;DHT22;13339;50.840;4.346;2024-02-16T10:11:18;16.70;99.90
25410;DHT22;13339;50.840;4.346;2024-02-16T10:13:58;16.80;99.90
25410;DHT22;13339;50.840;4.346;2024-02-16T10:16:24;16.80;99.90
25410;DHT22;13339;50.840;4.346;2024-02-16T10:18:50;16.70;99.90
25410;DHT22;13339;50.840;4.346;2024-02-16T10:21:28;16.70;99.90
25410;DHT22;13339;50.840;4.346;2024-02-16T10:24:02;16.70;99.90
25410;DHT22;13339;50.840;4.346;2024-02-16T10:26:30;16.80;99.90
25410;DHT22;13339;50.840;4.346;2024-02-16T10:28:56;16.80;99.90
25410;DHT22;13339;50.840;4.346;2024-02-16T10:31:24;16.80;99.90
25410;DHT22;13339;50.840;4.346;2024-02-16T10:34:03;16.80;99.90
25410;DHT22;13339;50.840;4.346;2024-02-16T10:36:32;16.80;99.90
25410;DHT22;13339;50.840;4.346;2024-02-16T10:38:58;16.80;99.90
25410;DHT22;13339;50.840;4.346;2024-02-16T10:41:27;16.80;99.90
25410;DHT22;13339;50.840;4.346;2024-02-16T10:43:54;16.80;99.90
25410;DHT22;13339;50.840;4.346;2024-02-16T10:46:22;16.80;99.90
25410;DHT22;13339;50.840;4.346;2024-02-16T10:48:48;16.80;99.90
25410;DHT22;13339;50.840;4.346;2024-02-16T10:51:16;16.80;99.90
25410;DHT22;13339;50.840;4.346;2024-02-16T10:53:43;16.80;99.90
25410;DHT22;13339;50.840;4.346;2024-02-16T10:56:09;16.80;99.90
25410;DHT22;13339;50.840;4.346;2024-02-16T10:58:37;16.70;99.90
25410;DHT22;13339;50.840;4.346;2024-02-16T11:01:09;16.70;99.90
25410;DHT22;13339;50.840;4.346;2024-02-16T11:03:39;16.60;99.90
25410;DHT22;13339;50.840;4.346;2024-02-16T11:06:17;16.60;99.90
25410;DHT22;13339;50.840;4.346;2024-02-16T11:08:43;16.60;99.90
25410;DHT22;13339;50.840;4.346;2024-02-16T11:11:09;16.60;99.90
25410;DHT22;13339;50.840;4.346;2024-02-16T11:13:37;16.50;99.90
25410;DHT22;13339;50.840;4.346;2024-02-16T11:16:12;16.50;99.90
25410;DHT22;13339;50.840;4.346;2024-02-16T11:18:42;16.50;99.90
25410;DHT22;13339;50.840;4.346;2024-02-16T11:21:12;16.50;99.90
25410;DHT22;13339;50.840;4.346;2024-02-16T11:23:40;16.60;99.90
25410;DHT22;13339;50.840;4.346;2024-02-16T11:26:09;16.50;99.90
25410;DHT22;13339;50.840;4.346;2024-02-16T11:28:38;16.50;99.90
25410;DHT22;13339;50.840;4.346;2024-02-16T11:31:04;16.40;99.90
25410;DHT22;13339;50.840;4.346;2024-02-16T11:33:30;16.50;99.90
25410;DHT22;13339;50.840;4.346;2024-02-16T11:35:57;16.60;99.90
25410;DHT22;13339;50.840;4.346;2024-02-16T11:38:23;16.50;99.90
25410;DHT22;13339;50.840;4.346;2024-02-16T11:40:59;16.50;99.90
25410;DHT22;13339;50.840;4.346;2024-02-16T11:43:26;16.40;99.90
25410;DHT22;13339;50.840;4.346;2024-02-16T11:45:52;16.60;99.90
25410;DHT22;13339;50.840;4.346;2024-02-16T11:48:22;16.60;99.90
25410;DHT22;13339;50.840;4.346;2024-02-16T11:50:48;16.70;99.90
25410;DHT22;13339;50.840;4.346;2024-02-16T11:53:17;16.60;99.90
25410;DHT22;13339;50.840;4.346;2024-02-16T11:55:48;16.60;99.90
25410;DHT22;13339;50.840;4.346;2024-02-16T11:58:16;16.50;99.90
25410;DHT22;13339;50.840;4.346;2024-02-16T12:00:42;16.50;99.90
25410;DHT22;13339;50.840;4.346;2024-02-16T12:03:08;16.50;99.90
25410;DHT22;13339;50.840;4.346;2024-02-16T12:05:33;16.50;99.90
25410;DHT22;13339;50.840;4.346;2024-02-16T12:07:59;16.50;99.90
25410;DHT22;13339;50.840;4.346;2024-02-16T12:10:25;16.40;99.90
25410;DHT22;13339;50.840;4.346;2024-02-16T12:12:51;16.40;99.90
25410;DHT22;13339;50.840;4.346;2024-02-16T12:15:17;16.30;99.90
25410;DHT22;13339;50.840;4.346;2024-02-16T12:17:45;16.30;99.90
25410;DHT22;13339;50.840;4.346;2024-02-16T12:20:14;16.30;99.90
25410;DHT22;13339;50.840;4.346;2024-02-16T12:22:39;16.30;99.90
25410;DHT22;13339;50.840;4.346;2024-02-16T12:25:05;16.20;99.90
25410;DHT22;13339;50.840;4.346;2024-02-16T12:27:31;16.20;99.90
25410;DHT22;13339;50.840;4.346;2024-02-16T12:29:57;16.10;99.90
25410;DHT22;13339;50.840;4.346;2024-02-16T12:32:22;16.20;99.90
25410;DHT22;13339;50.840;4.346;2024-02-16T12:34:48;16.20;99.90
25410;DHT22;13339;50.840;4.346;2024-02-16T12:37:14;16.20;99.90
25410;DHT22;13339;50.840;4.346;2024-02-16T12:39:39;16.10;99.90
25410;DHT22;13339;50.840;4.346;2024-02-16T12:42:06;16.00;99.90
25410;DHT22;13339;50.840;4.346;2024-02-16T12:44:31;16.00;99.90
25410;DHT22;13339;50.840;4.346;2024-02-16T12:46:57;16.00;99.90
25410;DHT22;13339;50.840;4.346;2024-02-16T12:49:22;16.00;99.90
25410;DHT22;13339;50.840;4.346;2024-02-16T12:51:49;16.00;99.90
25410;DHT22;13339;50.840;4.346;2024-02-16T12:54:15;16.00;99.90
25410;DHT22;13339;50.840;4.346;2024-02-16T12:56:45;16.00;99.90
25410;DHT22;13339;50.840;4.346;2024-02-16T12:59:11;16.00;99.90
25410;DHT22;13339;50.840;4.346;2024-02-16T13:01:36;15.90;99.90
25410;DHT22;13339;50.840;4.346;2024-02-16T13:04:02;15.70;99.90
25410;DHT22;13339;50.840;4.346;2024-02-16T13:06:28;15.80;99.90
25410;DHT22;13339;50.840;4.346;2024-02-16T13:08:53;15.80;99.90
25410;DHT22;13339;50.840;4.346;2024-02-16T13:11:19;15.90;99.90
25410;DHT22;13339;50.840;4.346;2024-02-16T13:13:45;16.00;99.90
25410;DHT22;13339;50.840;4.346;2024-02-16T13:16:10;16.00;99.90
25410;DHT22;13339;50.840;4.346;2024-02-16T13:18:36;16.00;99.90
25410;DHT22;13339;50.840;4.346;2024-02-16T13:21:01;16.10;99.90
25410;DHT22;13339;50.840;4.346;2024-02-16T13:23:27;16.10;99.90
25410;DHT22;13339;50.840;4.346;2024-02-16T13:25:54;16.20;99.90
25410;DHT22;13339;50.840;4.346;2024-02-16T13:28:20;16.20;99.90
25410;DHT22;13339;50.840;4.346;2024-02-16T13:30:46;16.30;99.90
25410;DHT22;13339;50.840;4.346;2024-02-16T13:33:11;16.30;99.90
25410;DHT22;13339;50.840;4.346;2024-02-16T13:35:37;16.40;99.90
25410;DHT22;13339;50.840;4.346;2024-02-16T13:38:03;16.50;99.90
25410;DHT22;13339;50.840;4.346;2024-02-16T13:40:29;16.40;99.90
25410;DHT22;13339;50.840;4.346;2024-02-16T13:42:55;16.50;99.90
25410;DHT22;13339;50.840;4.346;2024-02-16T13:45:27;16.50;99.90
25410;DHT22;13339;50.840;4.346;2024-02-16T13:47:53;16.50;99.90
25410;DHT22;13339;50.840;4.346;2024-02-16T13:50:19;16.50;99.90
25410;DHT22;13339;50.840;4.346;2024-02-16T13:52:44;16.40;99.90
25410;DHT22;13339;50.840;4.346;2024-02-16T13:55:10;16.40;99.90
25410;DHT22;13339;50.840;4.346;2024-02-16T13:57:36;16.30;99.90
25410;DHT22;13339;50.840;4.346;2024-02-16T14:00:04;16.40;99.90
25410;DHT22;13339;50.840;4.346;2024-02-16T14:02:30;16.50;99.90
25410;DHT22;13339;50.840;4.346;2024-02-16T14:04:56;16.50;99.90
25410;DHT22;13339;50.840;4.346;2024-02-16T14:07:22;16.60;99.90
25410;DHT22;13339;50.840;4.346;2024-02-16T14:09:48;16.50;99.90
25410;DHT22;13339;50.840;4.346;2024-02-16T14:12:14;16.50;99.90
25410;DHT22;13339;50.840;4.346;2024-02-16T14:14:39;16.60;99.90
25410;DHT22;13339;50.840;4.346;2024-02-16T14:17:05;16.70;99.90
25410;DHT22;13339;50.840;4.346;2024-02-16T14:19:30;16.70;99.90
25410;DHT22;13339;50.840;4.346;2024-02-16T14:21:56;16.50;99.90
25410;DHT22;13339;50.840;4.346;2024-02-16T14:24:22;16.50;99.90
25410;DHT22;13339;50.840;4.346;2024-02-16T14:26:47;16.50;99.90
25410;DHT22;13339;50.840;4.346;2024-02-16T14:29:13;16.30;99.90
25410;DHT22;13339;50.840;4.346;2024-02-16T14:31:38;16.40;99.90
25410;DHT22;13339;50.840;4.346;2024-02-16T14:34:04;16.40;99.90
25410;DHT22;13339;50.840;4.346;2024-02-16T14:36:30;16.50;99.90
25410;DHT22;13339;50.840;4.346;2024-02-16T14:38:55;16.40;99.90
25410;DHT22;13339;50.840;4.346;2024-02-16T14:41:21;16.60;99.90
25410;DHT22;13339;50.840;4.346;2024-02-16T14:43:48;16.50;99.90
25410;DHT22;13339;50.840;4.346;2024-02-16T14:46:13;16.60;99.90
25410;DHT22;13339;50.840;4.346;2024-02-16T14:48:41;16.70;99.90
25410;DHT22;13339;50.840;4.346;2024-02-16T14:51:06;16.80;99.90
25410;DHT22;13339;50.840;4.346;2024-02-16T14:53:32;16.80;99.90
25410;DHT22;13339;50.840;4.346;2024-02-16T14:55:59;16.90;99.90
25410;DHT22;13339;50.840;4.346;2024-02-16T14:58:25;17.00;99.90
25410;DHT22;13339;50.840;4.346;2024-02-16T15:00:51;17.10;99.90
25410;DHT22;13339;50.840;4.346;2024-02-16T15:03:16;17.10;99.90
25410;DHT22;13339;50.840;4.346;2024-02-16T15:05:44;17.10;99.90
25410;DHT22;13339;50.840;4.346;2024-02-16T15:08:10;17.10;99.90
25410;DHT22;13339;50.840;4.346;2024-02-16T15:10:36;17.30;99.90
25410;DHT22;13339;50.840;4.346;2024-02-16T15:13:01;17.30;99.90
25410;DHT22;13339;50.840;4.346;2024-02-16T15:15:27;17.30;99.90
25410;DHT22;13339;50.840;4.346;2024-02-16T15:17:53;17.10;99.90
25410;DHT22;13339;50.840;4.346;2024-02-16T15:20:18;17.20;99.90
25410;DHT22;13339;50.840;4.346;2024-02-16T15:22:47;17.10;99.90
25410;DHT22;13339;50.840;4.346;2024-02-16T15:25:13;17.10;99.90
25410;DHT22;13339;50.840;4.346;2024-02-16T15:27:39;17.20;99.90